Portada
METAR-TAF:

METAR-TAF

Aeroports :

Fairford, Anglaterra

latitud: 51-41N, longitud: 001-47W, altitud: 87 m

Observació

L'informe es va fer fa 43 minuts, a les 19:56 UTC
Vent 3 kt del Sud-Est
Temperatura 21°C
Humitat 53%
Pressió 1017 hPa
Visibilitat 10 km o més
Núvols disperses a una alçada de 20000 ft

METAR: EGVA 241956Z AUTO 13003KT 9999 SCT200 21/11 A3002 RMK AO2 SLP167 T02090112 $

Hora: 21:39 (20:39 UTC)


TAF: manca

Observacions i pronòstics meteorològics de més de 4000 aeroports (METAR i TAF).

Les estacions disponibles són els punts grocs i vermells al mapa.

Posi el ratolí al punt desitjat per veure el nom de l'estació.

Feu clic per veure les observacions i els pronòstics meteorològics.

Per canviar el mapa: feu clic els botons verds amb una creu de color negre per apropar; al botó verd amb un guió per allunyar la imatge; o en les fletxes verdes per a mapes adjacents.


METAR-TAF: